Long Pond Township, Maine
Current Conditions -  °F | °C
As of 9:37 AM on Sunday 23 Nov 2014 (Local Time) from CYSC Reporting Station
Haze Haze  
Wind Chill: 37°   Ceiling: 700
Heat Index: 37°   Visibility: 0.75mi
Dew Point: 37°   Wind: 2mph
Humidity: 100%   Direction: 260°W
Pressure: 30.03"   Gusts: NA
Location:  45.7142°N, 70.304°W
Report Text: CYSC 231437Z AUTO 26002KT 3/4SM BR SCT003 OVC007 03/03 A3003 RMK SLP180
Loading
Personal Weather Stations






























Interactive Weather Map New forecast layout! Learn more

10-Day Weather Forecast

Advertisements
Track Severe Weather on mobile